Time;durP1;ratioP1;P1;durP2;ratioP2;P2;SDS_P1;SDS_P2;PMS_P1;PMS_P2;Temp;Humidity;BMP_temperature;BMP_pressure;BME280_temperature;BME280_humidity;BME280_pressure;Samples;Min_cycle;Max_cycle;Signal;HPM_P1;HPM_P2
2023/03/13 00:01:21;;;;;;;12.68;8.93;;;7.80;99.90;;;;;;6126644;23;20386;-80
2023/03/13 00:03:48;;;;;;;13.82;9.48;;;7.80;99.90;;;;;;6127177;23;20755;-80
2023/03/13 00:06:15;;;;;;;11.53;8.10;;;7.80;99.90;;;;;;6126290;23;20374;-80
2023/03/13 00:08:43;;;;;;;12.68;8.07;;;7.70;99.90;;;;;;6126994;23;20899;-79
2023/03/13 00:11:12;;;;;;;11.40;8.15;;;7.60;99.90;;;;;;6126539;23;20682;-80
2023/03/13 00:13:40;;;;;;;10.43;7.50;;;7.60;99.90;;;;;;6125512;23;20381;-80
2023/03/13 00:16:13;;;;;;;11.82;7.57;;;7.50;99.90;;;;;;6130563;23;20712;-80
2023/03/13 00:18:48;;;;;;;9.13;6.63;;;7.40;99.90;;;;;;6150703;23;20377;-80
2023/03/13 00:21:16;;;;;;;9.63;6.60;;;7.40;99.90;;;;;;6150628;23;20436;-80
2023/03/13 00:23:43;;;;;;;8.77;6.10;;;7.30;99.90;;;;;;6151104;23;20384;-80
2023/03/13 00:26:12;;;;;;;8.27;5.90;;;7.30;99.90;;;;;;6150285;23;20420;-80
2023/03/13 00:28:40;;;;;;;7.80;5.70;;;7.20;99.90;;;;;;6151414;23;20370;-80
2023/03/13 00:31:08;;;;;;;11.98;7.65;;;7.20;99.90;;;;;;6151921;23;20701;-80
2023/03/13 00:33:38;;;;;;;12.95;6.63;;;7.20;99.90;;;;;;6151294;23;20836;-80
2023/03/13 00:36:11;;;;;;;12.65;8.18;;;7.20;99.90;;;;;;6149618;23;20711;-80
2023/03/13 00:38:38;;;;;;;11.67;7.70;;;7.20;99.90;;;;;;6151146;23;20405;-80
2023/03/13 00:41:11;;;;;;;13.52;8.65;;;7.20;99.90;;;;;;6149934;23;20475;-80
2023/03/13 00:43:39;;;;;;;9.90;7.15;;;7.20;99.90;;;;;;6150004;23;20469;-80
2023/03/13 00:46:06;;;;;;;10.88;7.90;;;7.20;99.90;;;;;;6150121;23;20405;-80
2023/03/13 00:48:34;;;;;;;12.20;7.50;;;7.20;99.90;;;;;;6150908;23;20382;-80
2023/03/13 00:51:01;;;;;;;9.68;7.22;;;7.30;99.90;;;;;;6149781;23;20382;-80
2023/03/13 00:53:28;;;;;;;12.10;7.55;;;7.30;99.90;;;;;;6152256;23;20374;-80
2023/03/13 00:56:00;;;;;;;10.80;6.95;;;7.30;99.90;;;;;;6150875;23;20378;-80
2023/03/13 00:58:28;;;;;;;10.03;6.83;;;7.30;99.90;;;;;;6150416;23;20478;-80
2023/03/13 01:00:56;;;;;;;10.43;7.30;;;7.40;99.90;;;;;;6150895;23;20405;-80
2023/03/13 01:03:24;;;;;;;10.65;6.68;;;7.40;99.90;;;;;;6150114;23;20409;-80
2023/03/13 01:06:00;;;;;;;9.77;7.25;;;7.40;99.90;;;;;;6151753;23;20468;-80
2023/03/13 01:08:28;;;;;;;10.25;6.88;;;7.40;99.90;;;;;;6150822;23;20737;-80
2023/03/13 01:11:10;;;;;;;10.32;7.57;;;7.30;99.90;;;;;;6151193;23;20704;-80
2023/03/13 01:13:37;;;;;;;12.27;8.35;;;7.30;99.90;;;;;;6150680;23;20717;-80
2023/03/13 01:16:13;;;;;;;10.52;7.57;;;7.30;99.90;;;;;;6151123;23;20386;-80
2023/03/13 01:18:43;;;;;;;11.60;7.90;;;7.30;99.90;;;;;;6150104;23;20386;-80
2023/03/13 01:21:12;;;;;;;8.90;7.28;;;7.40;99.90;;;;;;6150883;23;20409;-80
2023/03/13 01:23:39;;;;;;;12.65;7.80;;;7.40;99.90;;;;;;6151718;23;20378;-80
2023/03/13 01:26:07;;;;;;;9.57;7.32;;;7.40;99.90;;;;;;6150773;23;20378;-80
2023/03/13 01:28:35;;;;;;;10.77;7.50;;;7.50;99.90;;;;;;6149768;23;20428;-80
2023/03/13 01:31:14;;;;;;;10.77;7.72;;;7.50;99.90;;;;;;6151149;23;20404;-80
2023/03/13 01:33:41;;;;;;;10.57;7.70;;;7.50;99.90;;;;;;6149528;23;20389;-80
2023/03/13 01:36:09;;;;;;;11.27;8.00;;;7.50;99.90;;;;;;6150513;23;20377;-80
2023/03/13 01:38:36;;;;;;;10.73;8.02;;;7.50;99.90;;;;;;6149188;23;20389;-80
2023/03/13 01:41:05;;;;;;;11.18;7.22;;;7.50;99.90;;;;;;6150706;23;20454;-80
2023/03/13 01:43:35;;;;;;;10.77;7.13;;;7.50;99.90;;;;;;6149570;23;20409;-80
2023/03/13 01:46:07;;;;;;;8.13;6.82;;;7.50;99.90;;;;;;6150635;23;20381;-80
2023/03/13 01:48:46;;;;;;;10.07;7.57;;;7.60;99.90;;;;;;6151596;23;20670;-80
2023/03/13 01:51:36;;;;;;;13.35;8.68;;;7.60;99.90;;;;;;6150827;23;20385;-80
2023/03/13 01:54:23;;;;;;;10.80;7.53;;;7.60;99.90;;;;;;6149957;23;20425;-80
2023/03/13 01:56:59;;;;;;;9.90;7.82;;;7.60;99.90;;;;;;6149567;23;20406;-80
2023/03/13 01:59:36;;;;;;;8.68;6.72;;;7.60;99.90;;;;;;6150689;23;20764;-80
